Posh Shearwater — 3EJM7 — position and weather

sailwx.info

Track history (hours):
 
Tides and Currents Weather Stations Pressure Air Temp Water Temp Dewpoint Dewpoint Depression Visibility Wind Speed Wind Dir Waves Ship Positions

Posh Shearwater

Last reported at 2017-Sep-25 06:00 UTC. Time now 2017-Sep-25 06:20 UTC.
Position S 05°17' E 011°22'.

Length 79 m; draft 5 m.

Type: Other ship. MMSI: 371556000.

Date/timePositionNaut miles runAvg speedWind from/ knotsBaromVisibWave heightAir tempDewpointWater temp
2017-Sep-25 06:00S 05°17' E 011°22'1 1.4
2017-Sep-25 05:30S 05°16' E 011°21'2 4.5
2017-Sep-25 05:00S 05°17' E 011°23'0 0.1
2017-Sep-25 04:29S 05°17' E 011°23'0 0.0
2017-Sep-25 03:59S 05°17' E 011°23'0 0.0
2017-Sep-25 03:29S 05°17' E 011°23'0 0.3
2017-Sep-25 03:00S 05°17' E 011°23'0 0.1
2017-Sep-25 02:30S 05°17' E 011°23'0 0.0
2017-Sep-25 02:00S 05°17' E 011°23'0 0.6
2017-Sep-25 01:30S 05°17' E 011°23'0 0.4
2017-Sep-25 01:00S 05°17' E 011°24'2 3.9
2017-Sep-25 00:30S 05°16' E 011°22'3 6.2
2017-Sep-25 00:00S 05°15' E 011°19'2 3.6
2017-Sep-24 23:30S 05°13' E 011°18'0 0.1
2017-Sep-24 23:00S 05°13' E 011°18'0 0.2
2017-Sep-24 22:30S 05°13' E 011°18'0 0.2
2017-Sep-24 22:00S 05°13' E 011°18'0 0.1
2017-Sep-24 21:30S 05°13' E 011°18'0 0.1
2017-Sep-24 21:00S 05°13' E 011°18'0 0.6
2017-Sep-24 20:30S 05°13' E 011°18'0 0.2
2017-Sep-24 20:00S 05°13' E 011°18'0 0.0
2017-Sep-24 19:30S 05°13' E 011°18'0 0.1
2017-Sep-24 19:00S 05°13' E 011°18'0 0.0
2017-Sep-24 18:30S 05°13' E 011°18'0 0.0
2017-Sep-24 18:00S 05°13' E 011°18'0 0.5
2017-Sep-24 17:30S 05°13' E 011°18'0 0.1
2017-Sep-24 17:00S 05°13' E 011°18'0 0.8
2017-Sep-24 16:30S 05°13' E 011°18'3 5.2
2017-Sep-24 16:00S 05°15' E 011°20'3 6.9
2017-Sep-24 15:30S 05°17' E 011°23'0 0.4
2017-Sep-24 15:00S 05°17' E 011°23'0 0.4
2017-Sep-24 14:30S 05°17' E 011°23'0 0.4
2017-Sep-24 14:00S 05°17' E 011°23'2 4.4
2017-Sep-24 13:30S 05°15' E 011°24'4 7.6
2017-Sep-24 13:00S 05°12' E 011°27'0 1.0
2017-Sep-24 12:30S 05°12' E 011°27'0 0.5
2017-Sep-24 12:00S 05°12' E 011°27'0 0.4
2017-Sep-24 11:30S 05°12' E 011°27'0 0.4
2017-Sep-24 11:00S 05°12' E 011°27'0 0.4
2017-Sep-24 10:30S 05°13' E 011°27'0 0.3
2017-Sep-24 10:00S 05°13' E 011°27'0 0.4
2017-Sep-24 09:30S 05°13' E 011°28'0 0.3
2017-Sep-24 08:55S 05°13' E 011°28'0 0.3
2017-Sep-24 08:30S 05°13' E 011°28'0 0.6
2017-Sep-24 08:00S 05°13' E 011°28'2 4.1
2017-Sep-24 07:30S 05°15' E 011°27'4 7.5
2017-Sep-24 07:00S 05°17' E 011°24'1 1.0
2017-Sep-24 06:30S 05°17' E 011°23'0 0.1
2017-Sep-24 06:00S 05°17' E 011°23'0 0.0
2017-Sep-24 05:30S 05°17' E 011°23'0 0.0
2017-Sep-24 05:00S 05°17' E 011°23'0 0.0
2017-Sep-24 04:30S 05°17' E 011°23'0 0.0
2017-Sep-24 04:00S 05°17' E 011°23'0 0.0
2017-Sep-24 03:29S 05°17' E 011°23'0 0.0
2017-Sep-24 03:00S 05°17' E 011°23'0 0.0
2017-Sep-24 02:30S 05°17' E 011°23'0 0.0
2017-Sep-24 01:59S 05°17' E 011°23'0 0.0
2017-Sep-24 01:30S 05°17' E 011°23'0 0.3
2017-Sep-24 01:00S 05°17' E 011°23'0 0.3
2017-Sep-24 00:30S 05°17' E 011°23'0 0.6
2017-Sep-24 00:00S 05°17' E 011°24'4 7.3
2017-Sep-23 23:30S 05°14' E 011°25'4 7.3
2017-Sep-23 23:00S 05°11' E 011°27'4 7.2
2017-Sep-23 22:30S 05°08' E 011°28'4 7.2
2017-Sep-23 22:00S 05°04' E 011°30'4 7.5
2017-Sep-23 21:28S 05°01' E 011°32'3 7.5
2017-Sep-23 21:00S 04°58' E 011°34'22 0.5
2017-Sep-22 02:00S 05°17' E 011°23'0 0.4
2017-Sep-22 01:30S 05°17' E 011°23'0 0.7
2017-Sep-22 01:00S 05°18' E 011°24'0 0.4
2017-Sep-22 00:30S 05°18' E 011°24'0 0.2
2017-Sep-22 00:00S 05°18' E 011°23'0 0.1
2017-Sep-21 23:30S 05°18' E 011°23'0 0.5
2017-Sep-21 23:00S 05°18' E 011°24'0 0.8
2017-Sep-21 22:30S 05°17' E 011°24'4 6.9
2017-Sep-21 21:59S 05°14' E 011°25'4 7.3
2017-Sep-21 21:30S 05°11' E 011°27'4 7.2
2017-Sep-21 21:00S 05°08' E 011°28'4 7.2
2017-Sep-21 20:30S 05°04' E 011°30'4 7.2
2017-Sep-21 20:00S 05°01' E 011°32'4 7.2
2017-Sep-21 19:25S 04°57' E 011°34'0 0.0
2017-Sep-21 00:55S 04°57' E 011°34'3 7.6
2017-Sep-21 00:30S 04°60' E 011°32'4 7.6
2017-Sep-21 00:00S 05°03' E 011°31'4 7.5
2017-Sep-20 23:30S 05°07' E 011°29'4 7.4
2017-Sep-20 23:00S 05°10' E 011°27'4 7.3
2017-Sep-20 22:30S 05°13' E 011°26'4 7.1
2017-Sep-20 22:00S 05°16' E 011°24'2 3.5
2017-Sep-20 21:30S 05°18' E 011°23'0 0.0
2017-Sep-20 21:00S 05°18' E 011°23'0 0.1
2017-Sep-20 20:30S 05°18' E 011°23'0 0.1
2017-Sep-20 20:00S 05°18' E 011°23'0 0.1
2017-Sep-20 19:30S 05°18' E 011°23'0 0.1
2017-Sep-20 19:00S 05°18' E 011°23'0 0.0
2017-Sep-20 18:31S 05°18' E 011°23'0 0.1
2017-Sep-20 18:00S 05°18' E 011°23'0 0.1
2017-Sep-20 17:30S 05°18' E 011°23'0 0.1
2017-Sep-20 17:00S 05°18' E 011°23'0 0.1
2017-Sep-20 16:30S 05°18' E 011°23'0 0.1
2017-Sep-20 16:00S 05°18' E 011°23'0 0.1
2017-Sep-20 15:30S 05°18' E 011°23'0 0.3
2017-Sep-20 15:01S 05°18' E 011°23'1 0.6
2017-Sep-20 14:00S 05°17' E 011°23'0 0.2
2017-Sep-20 13:30S 05°17' E 011°23'0 0.0
2017-Sep-20 12:59S 05°17' E 011°23'0 0.0
2017-Sep-20 12:30S 05°17' E 011°23'0 0.0
2017-Sep-20 12:00S 05°17' E 011°23'0 0.0
2017-Sep-20 11:30S 05°17' E 011°23'0 0.0
2017-Sep-20 11:01S 05°17' E 011°23'0 0.0
2017-Sep-20 10:30S 05°17' E 011°23'0 0.0
2017-Sep-20 10:00S 05°17' E 011°23'0 0.0
2017-Sep-20 09:29S 05°17' E 011°23'0 0.0
2017-Sep-20 08:58S 05°17' E 011°23'0 0.0
2017-Sep-20 08:30S 05°17' E 011°23'0 0.0
2017-Sep-20 08:00S 05°17' E 011°23'0 0.0
2017-Sep-20 07:30S 05°17' E 011°23'0 0.0
2017-Sep-20 07:00S 05°17' E 011°23'0 0.0
2017-Sep-20 06:30S 05°17' E 011°23'0 0.1
2017-Sep-20 06:00S 05°17' E 011°23'0 0.1
2017-Sep-20 05:30S 05°17' E 011°23'0 0.3
2017-Sep-20 05:00S 05°17' E 011°23'1 1.2
2017-Sep-20 04:30S 05°17' E 011°24'0 0.3
2017-Sep-20 04:00S 05°17' E 011°24'0 0.3
2017-Sep-20 03:30S 05°17' E 011°24'0 0.4
2017-Sep-20 03:00S 05°17' E 011°24'0 0.4
2017-Sep-20 02:31S 05°17' E 011°23'0 0.3
2017-Sep-20 02:00S 05°17' E 011°24'4 7.3
2017-Sep-20 01:30S 05°14' E 011°25'4 8.0
2017-Sep-20 01:00S 05°10' E 011°27'4 7.9
2017-Sep-20 00:30S 05°06' E 011°29'4 7.9
2017-Sep-20 00:01S 05°03' E 011°31'4 7.8
2017-Sep-19 23:31S 04°60' E 011°33'3 0.2
2017-Sep-19 08:40S 04°57' E 011°34'1 7.6
2017-Sep-19 08:30S 04°58' E 011°33'4 8.0
2017-Sep-19 08:00S 05°02' E 011°32'4 7.8
2017-Sep-19 07:30S 05°05' E 011°30'4 7.4
2017-Sep-19 07:00S 05°08' E 011°28'4 8.1
2017-Sep-19 06:30S 05°12' E 011°26'4 8.2
2017-Sep-19 06:00S 05°16' E 011°24'1 2.8
2017-Sep-19 05:30S 05°17' E 011°23'0 0.2
2017-Sep-19 05:00S 05°17' E 011°23'0 0.1
2017-Sep-19 04:30S 05°17' E 011°23'0 0.1
2017-Sep-19 04:00S 05°17' E 011°23'0 0.7
2017-Sep-19 03:30S 05°17' E 011°23'0 0.0
2017-Sep-19 03:00S 05°17' E 011°23'0 0.0
2017-Sep-19 02:30S 05°17' E 011°23'0 0.0
2017-Sep-19 02:00S 05°17' E 011°23'0 0.0
2017-Sep-19 01:30S 05°17' E 011°23'0 0.0
2017-Sep-19 01:00S 05°17' E 011°23'0 0.0
2017-Sep-19 00:30S 05°17' E 011°23'0 0.0
2017-Sep-19 00:00S 05°17' E 011°23'0 0.0
2017-Sep-18 23:30S 05°17' E 011°23'0 0.0
2017-Sep-18 23:00S 05°17' E 011°23'0 0.2
2017-Sep-18 22:30S 05°17' E 011°23'0 0.0
2017-Sep-18 21:59S 05°17' E 011°23'0 0.0
2017-Sep-18 21:29S 05°17' E 011°23'0 0.0
2017-Sep-18 21:00S 05°17' E 011°23'0 0.2
2017-Sep-18 20:30S 05°17' E 011°23'0 0.0
2017-Sep-18 20:00S 05°17' E 011°23'0 0.0
2017-Sep-18 19:30S 05°17' E 011°23'0 0.0
2017-Sep-18 19:00S 05°17' E 011°23'0 0.0
2017-Sep-18 18:30S 05°17' E 011°23'0 0.0
2017-Sep-18 18:00S 05°17' E 011°23'0 0.5
2017-Sep-18 17:30S 05°17' E 011°23'0 0.5
2017-Sep-18 17:00S 05°17' E 011°24'0 0.2
2017-Sep-18 16:30S 05°17' E 011°24'0 0.0
2017-Sep-18 16:00S 05°17' E 011°24'0 0.0
2017-Sep-18 15:26S 05°17' E 011°24'0 0.0
2017-Sep-18 15:00S 05°17' E 011°24'0 0.1
2017-Sep-18 14:30S 05°17' E 011°24'0 0.3
2017-Sep-18 14:00S 05°17' E 011°24'0 0.1
2017-Sep-18 13:27S 05°17' E 011°23'0 0.0
2017-Sep-18 13:00S 05°17' E 011°23'0 0.2
2017-Sep-18 12:30S 05°17' E 011°24'0 0.2
2017-Sep-18 12:00S 05°17' E 011°24'0 0.2
2017-Sep-18 11:29S 05°17' E 011°24'0 0.2
2017-Sep-18 11:00S 05°17' E 011°24'0 0.1
2017-Sep-18 10:30S 05°17' E 011°24'0 0.3
2017-Sep-18 10:00S 05°17' E 011°24'3 5.3
2017-Sep-18 09:30S 05°18' E 011°26'3 6.0
2017-Sep-18 08:58S 05°21' E 011°27'2 1.0
2017-Sep-18 07:00S 05°23' E 011°27'0 0.2
2017-Sep-18 06:25S 05°23' E 011°27'1 1.3
2017-Sep-18 06:00S 05°23' E 011°27'0 0.1
2017-Sep-18 05:30S 05°23' E 011°27'0 0.1
2017-Sep-18 05:00S 05°23' E 011°27'0 0.1
2017-Sep-18 04:30S 05°23' E 011°27'0 0.0
2017-Sep-18 04:00S 05°23' E 011°27'0 0.0
2017-Sep-18 03:30S 05°23' E 011°27'1 1.4
2017-Sep-18 03:00S 05°22' E 011°27'3 6.1
2017-Sep-18 02:30S 05°20' E 011°25'3 5.7
2017-Sep-18 01:59S 05°17' E 011°23'0 0.3
2017-Sep-18 01:30S 05°17' E 011°23'0 0.0
2017-Sep-18 00:59S 05°17' E 011°23'0 0.0
2017-Sep-18 00:28S 05°17' E 011°23'0 0.0
2017-Sep-18 00:00S 05°17' E 011°23'0 0.0
2017-Sep-17 23:30S 05°17' E 011°23'0 0.0
2017-Sep-17 22:58S 05°17' E 011°23'0 0.0
2017-Sep-17 22:29S 05°17' E 011°23'0 0.0
2017-Sep-17 22:00S 05°17' E 011°23'0 0.0
2017-Sep-17 21:29S 05°17' E 011°23'0 0.0
2017-Sep-17 20:59S 05°17' E 011°23'0 0.1
2017-Sep-17 20:30S 05°17' E 011°23'0 0.3
2017-Sep-17 20:00S 05°17' E 011°23'0 0.3
2017-Sep-17 19:30S 05°17' E 011°23'0 0.0
2017-Sep-17 19:00S 05°17' E 011°23'0 0.0
2017-Sep-17 18:30S 05°17' E 011°23'0 0.1
2017-Sep-17 18:00S 05°17' E 011°23'0 0.5
2017-Sep-17 17:30S 05°17' E 011°23'0 0.2
2017-Sep-17 17:00S 05°17' E 011°24'1 1.6
2017-Sep-17 16:30S 05°18' E 011°23'0 1.0
2017-Sep-17 16:00S 05°17' E 011°23'0 0.0
2017-Sep-17 15:30S 05°17' E 011°23'0 0.0
2017-Sep-17 15:00S 05°17' E 011°23'0 0.0
2017-Sep-17 14:30S 05°17' E 011°23'0 0.0
2017-Sep-17 14:00S 05°17' E 011°23'0 0.0
2017-Sep-17 13:30S 05°17' E 011°23'0 0.0
2017-Sep-17 13:00S 05°17' E 011°23'0 0.0
2017-Sep-17 12:30S 05°17' E 011°23'0 0.0
2017-Sep-17 12:00S 05°17' E 011°23'0 0.0
2017-Sep-17 11:27S 05°17' E 011°23'0 0.0
2017-Sep-17 11:00S 05°17' E 011°23'0 0.0
2017-Sep-17 10:30S 05°17' E 011°23'0 0.0
2017-Sep-17 10:00S 05°17' E 011°23'0 0.5
2017-Sep-17 09:30S 05°17' E 011°23'0 0.1
2017-Sep-17 08:59S 05°17' E 011°23'0 0.9
2017-Sep-17 08:30S 05°17' E 011°23'4 7.0
2017-Sep-17 08:00S 05°14' E 011°20'3 5.7
2017-Sep-17 07:30S 05°12' E 011°18'0 0.5
2017-Sep-17 07:00S 05°12' E 011°18'0 0.2
2017-Sep-17 06:30S 05°12' E 011°18'0 0.1
2017-Sep-17 06:00S 05°12' E 011°18'0 0.1
2017-Sep-17 05:29S 05°12' E 011°18'0 0.0
2017-Sep-17 05:00S 05°12' E 011°18'0 0.1
2017-Sep-17 04:30S 05°12' E 011°18'0 0.1
2017-Sep-17 04:00S 05°12' E 011°18'0 0.0
2017-Sep-17 03:30S 05°12' E 011°18'0 0.1
2017-Sep-17 03:00S 05°12' E 011°18'0 0.2
2017-Sep-17 02:30S 05°12' E 011°18'0 0.0
2017-Sep-17 02:00S 05°12' E 011°18'0 0.2
2017-Sep-17 01:30S 05°12' E 011°18'0 0.1
2017-Sep-17 01:00S 05°12' E 011°18'0 0.2
2017-Sep-17 00:30S 05°12' E 011°18'0 0.1
2017-Sep-17 00:00S 05°12' E 011°18'0 0.1
2017-Sep-16 23:30S 05°12' E 011°18'0 0.0
2017-Sep-16 23:00S 05°12' E 011°18'0 0.1
2017-Sep-16 22:30S 05°12' E 011°18'0 0.1
2017-Sep-16 22:00S 05°12' E 011°18'0 0.0
2017-Sep-16 21:30S 05°12' E 011°18'0 0.0
2017-Sep-16 21:00S 05°12' E 011°18'0 0.0
2017-Sep-16 20:30S 05°12' E 011°18'0 0.0
2017-Sep-16 20:00S 05°12' E 011°18'0 0.0
2017-Sep-16 19:30S 05°12' E 011°18'0 0.1
2017-Sep-16 19:00S 05°12' E 011°18'0 0.2
2017-Sep-16 18:30S 05°12' E 011°18'0 0.2
2017-Sep-16 18:00S 05°12' E 011°18'0 0.3
2017-Sep-16 17:30S 05°12' E 011°18'0 0.1
2017-Sep-16 17:00S 05°12' E 011°18'0 0.3
2017-Sep-16 16:30S 05°12' E 011°18'0 0.2
2017-Sep-16 16:00S 05°12' E 011°18'0 0.2
2017-Sep-16 15:30S 05°12' E 011°17'0 0.2
2017-Sep-16 15:00S 05°12' E 011°17'0 0.2
2017-Sep-16 14:30S 05°12' E 011°18'0 0.2
2017-Sep-16 14:00S 05°12' E 011°18'0 0.1
2017-Sep-16 13:30S 05°12' E 011°18'0 0.1
2017-Sep-16 13:00S 05°12' E 011°18'0 0.1
2017-Sep-16 12:30S 05°12' E 011°18'0 0.0
2017-Sep-16 12:00S 05°12' E 011°18'0 0.0
2017-Sep-16 11:30S 05°12' E 011°18'0 0.1
2017-Sep-16 11:00S 05°12' E 011°18'0 0.2
2017-Sep-16 10:30S 05°12' E 011°18'0 0.5
2017-Sep-16 10:00S 05°12' E 011°18'0 0.9
2017-Sep-16 09:30S 05°12' E 011°18'0 0.2
2017-Sep-16 09:00S 05°12' E 011°18'0 0.2
2017-Sep-16 08:30S 05°12' E 011°18'0 0.4
2017-Sep-16 08:00S 05°12' E 011°18'0 0.2
2017-Sep-16 07:30S 05°12' E 011°18'0 0.0
2017-Sep-16 07:00S 05°12' E 011°18'0 0.0
2017-Sep-16 06:30S 05°12' E 011°18'0 0.0
2017-Sep-16 06:00S 05°12' E 011°18'0 0.1
2017-Sep-16 05:30S 05°12' E 011°18'0 0.2
2017-Sep-16 05:00S 05°12' E 011°18'0 0.1
2017-Sep-16 04:30S 05°12' E 011°18'0 0.0
2017-Sep-16 04:00S 05°12' E 011°18'0 1.0
2017-Sep-16 03:30S 05°13' E 011°18'0 0.1
2017-Sep-16 03:00S 05°13' E 011°18'0 0.5
2017-Sep-16 02:30S 05°13' E 011°18'1 1.5
2017-Sep-16 02:00S 05°12' E 011°19'3 5.6
2017-Sep-16 01:30S 05°10' E 011°21'3 6.9
2017-Sep-16 01:00S 05°08' E 011°23'3 6.9
2017-Sep-16 00:30S 05°06' E 011°25'4 7.0
2017-Sep-16 00:00S 05°03' E 011°28'3 7.0
2017-Sep-15 23:30S 05°01' E 011°30'3 6.8
2017-Sep-15 23:00S 04°58' E 011°33'  
Track history (hours):
 
Tides and Currents Weather Stations Pressure Air Temp Water Temp Dewpoint Dewpoint Depression Visibility Wind Speed Wind Dir Waves Ship Positions

Posh Shearwater

Last reported at 2017-Sep-25 06:00 UTC. Time now 2017-Sep-25 06:20 UTC.
Position S 05°17' E 011°22'.

Length 79 m; draft 5 m.

Type: Other ship. MMSI: 371556000.

Date/timePositionNaut miles runAvg speedWind from/ knotsBaromVisibWave heightAir tempDewpointWater temp
2017-Sep-25 06:00S 05°17' E 011°22'1 1.4
2017-Sep-25 05:30S 05°16' E 011°21'2 4.5
2017-Sep-25 05:00S 05°17' E 011°23'0 0.1
2017-Sep-25 04:29S 05°17' E 011°23'0 0.0
2017-Sep-25 03:59S 05°17' E 011°23'0 0.0
2017-Sep-25 03:29S 05°17' E 011°23'0 0.3
2017-Sep-25 03:00S 05°17' E 011°23'0 0.1
2017-Sep-25 02:30S 05°17' E 011°23'0 0.0
2017-Sep-25 02:00S 05°17' E 011°23'0 0.6
2017-Sep-25 01:30S 05°17' E 011°23'0 0.4
2017-Sep-25 01:00S 05°17' E 011°24'2 3.9
2017-Sep-25 00:30S 05°16' E 011°22'3 6.2
2017-Sep-25 00:00S 05°15' E 011°19'2 3.6
2017-Sep-24 23:30S 05°13' E 011°18'0 0.1
2017-Sep-24 23:00S 05°13' E 011°18'0 0.2
2017-Sep-24 22:30S 05°13' E 011°18'0 0.2
2017-Sep-24 22:00S 05°13' E 011°18'0 0.1
2017-Sep-24 21:30S 05°13' E 011°18'0 0.1
2017-Sep-24 21:00S 05°13' E 011°18'0 0.6
2017-Sep-24 20:30S 05°13' E 011°18'0 0.2
2017-Sep-24 20:00S 05°13' E 011°18'0 0.0
2017-Sep-24 19:30S 05°13' E 011°18'0 0.1
2017-Sep-24 19:00S 05°13' E 011°18'0 0.0
2017-Sep-24 18:30S 05°13' E 011°18'0 0.0
2017-Sep-24 18:00S 05°13' E 011°18'0 0.5
2017-Sep-24 17:30S 05°13' E 011°18'0 0.1
2017-Sep-24 17:00S 05°13' E 011°18'0 0.8
2017-Sep-24 16:30S 05°13' E 011°18'3 5.2
2017-Sep-24 16:00S 05°15' E 011°20'3 6.9
2017-Sep-24 15:30S 05°17' E 011°23'0 0.4
2017-Sep-24 15:00S 05°17' E 011°23'0 0.4
2017-Sep-24 14:30S 05°17' E 011°23'0 0.4
2017-Sep-24 14:00S 05°17' E 011°23'2 4.4
2017-Sep-24 13:30S 05°15' E 011°24'4 7.6
2017-Sep-24 13:00S 05°12' E 011°27'0 1.0
2017-Sep-24 12:30S 05°12' E 011°27'0 0.5
2017-Sep-24 12:00S 05°12' E 011°27'0 0.4
2017-Sep-24 11:30S 05°12' E 011°27'0 0.4
2017-Sep-24 11:00S 05°12' E 011°27'0 0.4
2017-Sep-24 10:30S 05°13' E 011°27'0 0.3
2017-Sep-24 10:00S 05°13' E 011°27'0 0.4
2017-Sep-24 09:30S 05°13' E 011°28'0 0.3
2017-Sep-24 08:55S 05°13' E 011°28'0 0.3
2017-Sep-24 08:30S 05°13' E 011°28'0 0.6
2017-Sep-24 08:00S 05°13' E 011°28'2 4.1
2017-Sep-24 07:30S 05°15' E 011°27'4 7.5
2017-Sep-24 07:00S 05°17' E 011°24'1 1.0
2017-Sep-24 06:30S 05°17' E 011°23'0 0.1
2017-Sep-24 06:00S 05°17' E 011°23'0 0.0
2017-Sep-24 05:30S 05°17' E 011°23'0 0.0
2017-Sep-24 05:00S 05°17' E 011°23'0 0.0
2017-Sep-24 04:30S 05°17' E 011°23'0 0.0
2017-Sep-24 04:00S 05°17' E 011°23'0 0.0
2017-Sep-24 03:29S 05°17' E 011°23'0 0.0
2017-Sep-24 03:00S 05°17' E 011°23'0 0.0
2017-Sep-24 02:30S 05°17' E 011°23'0 0.0
2017-Sep-24 01:59S 05°17' E 011°23'0 0.0
2017-Sep-24 01:30S 05°17' E 011°23'0 0.3
2017-Sep-24 01:00S 05°17' E 011°23'0 0.3
2017-Sep-24 00:30S 05°17' E 011°23'0 0.6
2017-Sep-24 00:00S 05°17' E 011°24'4 7.3
2017-Sep-23 23:30S 05°14' E 011°25'4 7.3
2017-Sep-23 23:00S 05°11' E 011°27'4 7.2
2017-Sep-23 22:30S 05°08' E 011°28'4 7.2
2017-Sep-23 22:00S 05°04' E 011°30'4 7.5
2017-Sep-23 21:28S 05°01' E 011°32'3 7.5
2017-Sep-23 21:00S 04°58' E 011°34'22 0.5
2017-Sep-22 02:00S 05°17' E 011°23'0 0.4
2017-Sep-22 01:30S 05°17' E 011°23'0 0.7
2017-Sep-22 01:00S 05°18' E 011°24'0 0.4
2017-Sep-22 00:30S 05°18' E 011°24'0 0.2
2017-Sep-22 00:00S 05°18' E 011°23'0 0.1
2017-Sep-21 23:30S 05°18' E 011°23'0 0.5
2017-Sep-21 23:00S 05°18' E 011°24'0 0.8
2017-Sep-21 22:30S 05°17' E 011°24'4 6.9
2017-Sep-21 21:59S 05°14' E 011°25'4 7.3
2017-Sep-21 21:30S 05°11' E 011°27'4 7.2
2017-Sep-21 21:00S 05°08' E 011°28'4 7.2
2017-Sep-21 20:30S 05°04' E 011°30'4 7.2
2017-Sep-21 20:00S 05°01' E 011°32'4 7.2
2017-Sep-21 19:25S 04°57' E 011°34'0 0.0
2017-Sep-21 00:55S 04°57' E 011°34'3 7.6
2017-Sep-21 00:30S 04°60' E 011°32'4 7.6
2017-Sep-21 00:00S 05°03' E 011°31'4 7.5
2017-Sep-20 23:30S 05°07' E 011°29'4 7.4
2017-Sep-20 23:00S 05°10' E 011°27'4 7.3
2017-Sep-20 22:30S 05°13' E 011°26'4 7.1
2017-Sep-20 22:00S 05°16' E 011°24'2 3.5
2017-Sep-20 21:30S 05°18' E 011°23'0 0.0
2017-Sep-20 21:00S 05°18' E 011°23'0 0.1
2017-Sep-20 20:30S 05°18' E 011°23'0 0.1
2017-Sep-20 20:00S 05°18' E 011°23'0 0.1
2017-Sep-20 19:30S 05°18' E 011°23'0 0.1
2017-Sep-20 19:00S 05°18' E 011°23'0 0.0
2017-Sep-20 18:31S 05°18' E 011°23'0 0.1
2017-Sep-20 18:00S 05°18' E 011°23'0 0.1
2017-Sep-20 17:30S 05°18' E 011°23'0 0.1
2017-Sep-20 17:00S 05°18' E 011°23'0 0.1
2017-Sep-20 16:30S 05°18' E 011°23'0 0.1
2017-Sep-20 16:00S 05°18' E 011°23'0 0.1
2017-Sep-20 15:30S 05°18' E 011°23'0 0.3
2017-Sep-20 15:01S 05°18' E 011°23'1 0.6
2017-Sep-20 14:00S 05°17' E 011°23'0 0.2
2017-Sep-20 13:30S 05°17' E 011°23'0 0.0
2017-Sep-20 12:59S 05°17' E 011°23'0 0.0
2017-Sep-20 12:30S 05°17' E 011°23'0 0.0
2017-Sep-20 12:00S 05°17' E 011°23'0 0.0
2017-Sep-20 11:30S 05°17' E 011°23'0 0.0
2017-Sep-20 11:01S 05°17' E 011°23'0 0.0
2017-Sep-20 10:30S 05°17' E 011°23'0 0.0
2017-Sep-20 10:00S 05°17' E 011°23'0 0.0
2017-Sep-20 09:29S 05°17' E 011°23'0 0.0
2017-Sep-20 08:58S 05°17' E 011°23'0 0.0
2017-Sep-20 08:30S 05°17' E 011°23'0 0.0
2017-Sep-20 08:00S 05°17' E 011°23'0 0.0
2017-Sep-20 07:30S 05°17' E 011°23'0 0.0
2017-Sep-20 07:00S 05°17' E 011°23'0 0.0
2017-Sep-20 06:30S 05°17' E 011°23'0 0.1
2017-Sep-20 06:00S 05°17' E 011°23'0 0.1
2017-Sep-20 05:30S 05°17' E 011°23'0 0.3
2017-Sep-20 05:00S 05°17' E 011°23'1 1.2
2017-Sep-20 04:30S 05°17' E 011°24'0 0.3
2017-Sep-20 04:00S 05°17' E 011°24'0 0.3
2017-Sep-20 03:30S 05°17' E 011°24'0 0.4
2017-Sep-20 03:00S 05°17' E 011°24'0 0.4
2017-Sep-20 02:31S 05°17' E 011°23'0 0.3
2017-Sep-20 02:00S 05°17' E 011°24'4 7.3
2017-Sep-20 01:30S 05°14' E 011°25'4 8.0
2017-Sep-20 01:00S 05°10' E 011°27'4 7.9
2017-Sep-20 00:30S 05°06' E 011°29'4 7.9
2017-Sep-20 00:01S 05°03' E 011°31'4 7.8
2017-Sep-19 23:31S 04°60' E 011°33'3 0.2
2017-Sep-19 08:40S 04°57' E 011°34'1 7.6
2017-Sep-19 08:30S 04°58' E 011°33'4 8.0
2017-Sep-19 08:00S 05°02' E 011°32'4 7.8
2017-Sep-19 07:30S 05°05' E 011°30'4 7.4
2017-Sep-19 07:00S 05°08' E 011°28'4 8.1
2017-Sep-19 06:30S 05°12' E 011°26'4 8.2
2017-Sep-19 06:00S 05°16' E 011°24'1 2.8
2017-Sep-19 05:30S 05°17' E 011°23'0 0.2
2017-Sep-19 05:00S 05°17' E 011°23'0 0.1
2017-Sep-19 04:30S 05°17' E 011°23'0 0.1
2017-Sep-19 04:00S 05°17' E 011°23'0 0.7
2017-Sep-19 03:30S 05°17' E 011°23'0 0.0
2017-Sep-19 03:00S 05°17' E 011°23'0 0.0
2017-Sep-19 02:30S 05°17' E 011°23'0 0.0
2017-Sep-19 02:00S 05°17' E 011°23'0 0.0
2017-Sep-19 01:30S 05°17' E 011°23'0 0.0
2017-Sep-19 01:00S 05°17' E 011°23'0 0.0
2017-Sep-19 00:30S 05°17' E 011°23'0 0.0
2017-Sep-19 00:00S 05°17' E 011°23'0 0.0
2017-Sep-18 23:30S 05°17' E 011°23'0 0.0
2017-Sep-18 23:00S 05°17' E 011°23'0 0.2
2017-Sep-18 22:30S 05°17' E 011°23'0 0.0
2017-Sep-18 21:59S 05°17' E 011°23'0 0.0
2017-Sep-18 21:29S 05°17' E 011°23'0 0.0
2017-Sep-18 21:00S 05°17' E 011°23'0 0.2
2017-Sep-18 20:30S 05°17' E 011°23'0 0.0
2017-Sep-18 20:00S 05°17' E 011°23'0 0.0
2017-Sep-18 19:30S 05°17' E 011°23'0 0.0
2017-Sep-18 19:00S 05°17' E 011°23'0 0.0
2017-Sep-18 18:30S 05°17' E 011°23'0 0.0
2017-Sep-18 18:00S 05°17' E 011°23'0 0.5
2017-Sep-18 17:30S 05°17' E 011°23'0 0.5
2017-Sep-18 17:00S 05°17' E 011°24'0 0.2
2017-Sep-18 16:30S 05°17' E 011°24'0 0.0
2017-Sep-18 16:00S 05°17' E 011°24'0 0.0
2017-Sep-18 15:26S 05°17' E 011°24'0 0.0
2017-Sep-18 15:00S 05°17' E 011°24'0 0.1
2017-Sep-18 14:30S 05°17' E 011°24'0 0.3
2017-Sep-18 14:00S 05°17' E 011°24'0 0.1
2017-Sep-18 13:27S 05°17' E 011°23'0 0.0
2017-Sep-18 13:00S 05°17' E 011°23'0 0.2
2017-Sep-18 12:30S 05°17' E 011°24'0 0.2
2017-Sep-18 12:00S 05°17' E 011°24'0 0.2
2017-Sep-18 11:29S 05°17' E 011°24'0 0.2
2017-Sep-18 11:00S 05°17' E 011°24'0 0.1
2017-Sep-18 10:30S 05°17' E 011°24'0 0.3
2017-Sep-18 10:00S 05°17' E 011°24'3 5.3
2017-Sep-18 09:30S 05°18' E 011°26'3 6.0
2017-Sep-18 08:58S 05°21' E 011°27'2 1.0
2017-Sep-18 07:00S 05°23' E 011°27'0 0.2
2017-Sep-18 06:25S 05°23' E 011°27'1 1.3
2017-Sep-18 06:00S 05°23' E 011°27'0 0.1
2017-Sep-18 05:30S 05°23' E 011°27'0 0.1
2017-Sep-18 05:00S 05°23' E 011°27'0 0.1
2017-Sep-18 04:30S 05°23' E 011°27'0 0.0
2017-Sep-18 04:00S 05°23' E 011°27'0 0.0
2017-Sep-18 03:30S 05°23' E 011°27'1 1.4
2017-Sep-18 03:00S 05°22' E 011°27'3 6.1
2017-Sep-18 02:30S 05°20' E 011°25'3 5.7
2017-Sep-18 01:59S 05°17' E 011°23'0 0.3
2017-Sep-18 01:30S 05°17' E 011°23'0 0.0
2017-Sep-18 00:59S 05°17' E 011°23'0 0.0
2017-Sep-18 00:28S 05°17' E 011°23'0 0.0
2017-Sep-18 00:00S 05°17' E 011°23'0 0.0
2017-Sep-17 23:30S 05°17' E 011°23'0 0.0
2017-Sep-17 22:58S 05°17' E 011°23'0 0.0
2017-Sep-17 22:29S 05°17' E 011°23'0 0.0
2017-Sep-17 22:00S 05°17' E 011°23'0 0.0
2017-Sep-17 21:29S 05°17' E 011°23'0 0.0
2017-Sep-17 20:59S 05°17' E 011°23'0 0.1
2017-Sep-17 20:30S 05°17' E 011°23'0 0.3
2017-Sep-17 20:00S 05°17' E 011°23'0 0.3
2017-Sep-17 19:30S 05°17' E 011°23'0 0.0
2017-Sep-17 19:00S 05°17' E 011°23'0 0.0
2017-Sep-17 18:30S 05°17' E 011°23'0 0.1
2017-Sep-17 18:00S 05°17' E 011°23'0 0.5
2017-Sep-17 17:30S 05°17' E 011°23'0 0.2
2017-Sep-17 17:00S 05°17' E 011°24'1 1.6
2017-Sep-17 16:30S 05°18' E 011°23'0 1.0
2017-Sep-17 16:00S 05°17' E 011°23'0 0.0
2017-Sep-17 15:30S 05°17' E 011°23'0 0.0
2017-Sep-17 15:00S 05°17' E 011°23'0 0.0
2017-Sep-17 14:30S 05°17' E 011°23'0 0.0
2017-Sep-17 14:00S 05°17' E 011°23'0 0.0
2017-Sep-17 13:30S 05°17' E 011°23'0 0.0
2017-Sep-17 13:00S 05°17' E 011°23'0 0.0
2017-Sep-17 12:30S 05°17' E 011°23'0 0.0
2017-Sep-17 12:00S 05°17' E 011°23'0 0.0
2017-Sep-17 11:27S 05°17' E 011°23'0 0.0
2017-Sep-17 11:00S 05°17' E 011°23'0 0.0
2017-Sep-17 10:30S 05°17' E 011°23'0 0.0
2017-Sep-17 10:00S 05°17' E 011°23'0 0.5
2017-Sep-17 09:30S 05°17' E 011°23'0 0.1
2017-Sep-17 08:59S 05°17' E 011°23'0 0.9
2017-Sep-17 08:30S 05°17' E 011°23'4 7.0
2017-Sep-17 08:00S 05°14' E 011°20'3 5.7
2017-Sep-17 07:30S 05°12' E 011°18'0 0.5
2017-Sep-17 07:00S 05°12' E 011°18'0 0.2
2017-Sep-17 06:30S 05°12' E 011°18'0 0.1
2017-Sep-17 06:00S 05°12' E 011°18'0 0.1
2017-Sep-17 05:29S 05°12' E 011°18'0 0.0
2017-Sep-17 05:00S 05°12' E 011°18'0 0.1
2017-Sep-17 04:30S 05°12' E 011°18'0 0.1
2017-Sep-17 04:00S 05°12' E 011°18'0 0.0
2017-Sep-17 03:30S 05°12' E 011°18'0 0.1
2017-Sep-17 03:00S 05°12' E 011°18'0 0.2
2017-Sep-17 02:30S 05°12' E 011°18'0 0.0
2017-Sep-17 02:00S 05°12' E 011°18'0 0.2
2017-Sep-17 01:30S 05°12' E 011°18'0 0.1
2017-Sep-17 01:00S 05°12' E 011°18'0 0.2
2017-Sep-17 00:30S 05°12' E 011°18'0 0.1
2017-Sep-17 00:00S 05°12' E 011°18'0 0.1
2017-Sep-16 23:30S 05°12' E 011°18'0 0.0
2017-Sep-16 23:00S 05°12' E 011°18'0 0.1
2017-Sep-16 22:30S 05°12' E 011°18'0 0.1
2017-Sep-16 22:00S 05°12' E 011°18'0 0.0
2017-Sep-16 21:30S 05°12' E 011°18'0 0.0
2017-Sep-16 21:00S 05°12' E 011°18'0 0.0
2017-Sep-16 20:30S 05°12' E 011°18'0 0.0
2017-Sep-16 20:00S 05°12' E 011°18'0 0.0
2017-Sep-16 19:30S 05°12' E 011°18'0 0.1
2017-Sep-16 19:00S 05°12' E 011°18'0 0.2
2017-Sep-16 18:30S 05°12' E 011°18'0 0.2
2017-Sep-16 18:00S 05°12' E 011°18'0 0.3
2017-Sep-16 17:30S 05°12' E 011°18'0 0.1
2017-Sep-16 17:00S 05°12' E 011°18'0 0.3
2017-Sep-16 16:30S 05°12' E 011°18'0 0.2
2017-Sep-16 16:00S 05°12' E 011°18'0 0.2
2017-Sep-16 15:30S 05°12' E 011°17'0 0.2
2017-Sep-16 15:00S 05°12' E 011°17'0 0.2
2017-Sep-16 14:30S 05°12' E 011°18'0 0.2
2017-Sep-16 14:00S 05°12' E 011°18'0 0.1
2017-Sep-16 13:30S 05°12' E 011°18'0 0.1
2017-Sep-16 13:00S 05°12' E 011°18'0 0.1
2017-Sep-16 12:30S 05°12' E 011°18'0 0.0
2017-Sep-16 12:00S 05°12' E 011°18'0 0.0
2017-Sep-16 11:30S 05°12' E 011°18'0 0.1
2017-Sep-16 11:00S 05°12' E 011°18'0 0.2
2017-Sep-16 10:30S 05°12' E 011°18'0 0.5
2017-Sep-16 10:00S 05°12' E 011°18'0 0.9
2017-Sep-16 09:30S 05°12' E 011°18'0 0.2
2017-Sep-16 09:00S 05°12' E 011°18'0 0.2
2017-Sep-16 08:30S 05°12' E 011°18'0 0.4
2017-Sep-16 08:00S 05°12' E 011°18'0 0.2
2017-Sep-16 07:30S 05°12' E 011°18'0 0.0
2017-Sep-16 07:00S 05°12' E 011°18'0 0.0
2017-Sep-16 06:30S 05°12' E 011°18'0 0.0
2017-Sep-16 06:00S 05°12' E 011°18'0 0.1
2017-Sep-16 05:30S 05°12' E 011°18'0 0.2
2017-Sep-16 05:00S 05°12' E 011°18'0 0.1
2017-Sep-16 04:30S 05°12' E 011°18'0 0.0
2017-Sep-16 04:00S 05°12' E 011°18'0 1.0
2017-Sep-16 03:30S 05°13' E 011°18'0 0.1
2017-Sep-16 03:00S 05°13' E 011°18'0 0.5
2017-Sep-16 02:30S 05°13' E 011°18'1 1.5
2017-Sep-16 02:00S 05°12' E 011°19'3 5.6
2017-Sep-16 01:30S 05°10' E 011°21'3 6.9
2017-Sep-16 01:00S 05°08' E 011°23'3 6.9
2017-Sep-16 00:30S 05°06' E 011°25'4 7.0
2017-Sep-16 00:00S 05°03' E 011°28'3 7.0
2017-Sep-15 23:30S 05°01' E 011°30'3 6.8
2017-Sep-15 23:00S 04°58' E 011°33'  

Dump ship's entire track history